Time;durP1;ratioP1;P1;durP2;ratioP2;P2;SDS_P1;SDS_P2;PMS_P1;PMS_P2;Temp;Humidity;BMP_temperature;BMP_pressure;BME280_temperature;BME280_humidity;BME280_pressure;Samples;Min_cycle;Max_cycle;Signal;HPM_P1;HPM_P2
2023/04/07 00:01:15;;;;;;;27.42;10.82;;;;;;;-144.87;100.00;61487.56;4987892;28;20085;-85
2023/04/07 00:03:42;;;;;;;30.88;11.55;;;;;;;-144.87;100.00;61487.56;4989835;28;20042;-84
2023/04/07 00:06:09;;;;;;;33.90;11.63;;;;;;;-144.87;100.00;61487.56;4991652;28;20042;-85
2023/04/07 00:08:35;;;;;;;27.50;12.65;;;;;;;-144.87;100.00;61487.56;4989922;28;20044;-85
2023/04/07 00:11:01;;;;;;;28.83;11.90;;;;;;;-144.87;100.00;61487.56;4987888;28;20035;-85
2023/04/07 00:13:46;;;;;;;27.88;11.68;;;;;;;-144.87;100.00;61487.56;4991347;28;20038;-85
2023/04/07 00:16:13;;;;;;;31.02;13.82;;;;;;;-144.87;100.00;61487.56;4988620;28;20038;-85
2023/04/07 00:18:39;;;;;;;34.72;13.05;;;;;;;-144.87;100.00;61487.56;4986438;28;20053;-85
2023/04/07 00:21:07;;;;;;;33.75;11.93;;;;;;;-144.87;100.00;61487.56;4989253;28;20069;-85
2023/04/07 00:23:35;;;;;;;33.78;12.30;;;;;;;-144.87;100.00;61487.56;4989449;28;20038;-85
2023/04/07 00:26:02;;;;;;;25.92;10.55;;;;;;;-144.87;100.00;61487.56;5003746;28;20093;-86
2023/04/07 00:28:29;;;;;;;30.70;12.25;;;;;;;-144.87;100.00;61487.56;4988224;28;20407;-86
2023/04/07 00:30:55;;;;;;;29.50;12.65;;;;;;;-144.87;100.00;61487.56;4989038;28;20114;-85
2023/04/07 00:33:21;;;;;;;37.25;14.40;;;;;;;-144.87;100.00;61487.56;4975287;28;20034;-86
2023/04/07 00:35:48;;;;;;;40.42;15.35;;;;;;;-144.87;100.00;61487.56;4990301;28;20588;-86
2023/04/07 00:38:15;;;;;;;35.58;14.88;;;;;;;-144.87;100.00;61487.56;4989831;28;20061;-85
2023/04/07 00:40:42;;;;;;;38.88;15.05;;;;;;;-144.87;100.00;61487.56;4992090;28;20046;-83
2023/04/07 00:43:09;;;;;;;37.38;15.05;;;;;;;-144.87;100.00;61487.56;4992305;28;20030;-84
2023/04/07 00:45:54;;;;;;;43.85;16.08;;;;;;;-144.87;100.00;61487.56;4986320;28;20147;-85
2023/04/07 00:48:20;;;;;;;48.35;16.63;;;;;;;-144.87;100.00;61487.56;4972822;28;20034;-84
2023/04/07 00:50:47;;;;;;;43.15;16.20;;;;;;;-144.87;100.00;61487.56;5002785;28;20031;-84
2023/04/07 00:53:13;;;;;;;36.88;14.73;;;;;;;-144.87;100.00;61487.56;4986132;28;20038;-84
2023/04/07 00:55:40;;;;;;;40.67;14.82;;;;;;;-144.87;100.00;61487.56;4991286;28;20097;-85
2023/04/07 00:58:10;;;;;;;40.50;14.73;;;;;;;-144.87;100.00;61487.56;5005090;28;20053;-85
2023/04/07 01:00:55;;;;;;;41.13;15.85;;;;;;;-144.87;100.00;61487.56;4988957;28;21354;-85
2023/04/07 01:03:45;;;;;;;43.90;16.45;;;;;;;-144.87;100.00;61487.56;4986779;28;20637;-83
2023/04/07 01:06:15;;;;;;;47.28;17.73;;;;;;;-144.87;100.00;61487.56;5003545;28;20053;-84
2023/04/07 01:09:10;;;;;;;53.22;18.10;;;;;;;-144.87;100.00;61487.56;4973607;28;20516;-83
2023/04/07 01:11:48;;;;;;;46.03;17.38;;;;;;;-144.87;100.00;61487.56;5004695;28;20026;-85
2023/04/07 01:14:20;;;;;;;42.00;16.73;;;;;;;-144.87;100.00;61487.56;5004792;28;20126;-85
2023/04/07 01:16:57;;;;;;;43.92;16.38;;;;;;;-144.87;100.00;61487.56;4989850;28;20049;-83
2023/04/07 01:19:29;;;;;;;;;;;;;;;-144.87;100.00;61487.56;5002839;28;20056;-82
2023/04/07 01:22:21;;;;;;;41.75;16.17;;;;;;;-144.87;100.00;61487.56;5000462;28;19918;-84
2023/04/07 01:25:22;;;;;;;41.47;15.15;;;;;;;-144.87;100.00;61487.56;4996261;28;20060;-85
2023/04/07 01:27:51;;;;;;;38.15;14.75;;;;;;;-144.87;100.00;61487.56;5009991;28;20033;-85
2023/04/07 01:30:19;;;;;;;36.83;13.23;;;;;;;-144.87;100.00;61487.56;5030027;28;20041;-85
2023/04/07 01:32:50;;;;;;;36.13;13.20;;;;;;;-144.87;100.00;61487.56;5001842;28;20084;-84
2023/04/07 01:35:19;;;;;;;39.50;13.02;;;;;;;-144.87;100.00;61487.56;4996824;28;20453;-85
2023/04/07 01:37:48;;;;;;;41.67;13.20;;;;;;;-144.87;100.00;61487.56;4994469;28;20021;-84
2023/04/07 01:40:14;;;;;;;39.25;11.48;;;;;;;-144.87;100.00;61487.56;4989872;28;20128;-84
2023/04/07 01:42:42;;;;;;;29.13;10.68;;;;;;;-144.87;100.00;61487.56;4994385;28;20029;-84
2023/04/07 01:45:09;;;;;;;26.13;10.18;;;;;;;-144.87;100.00;61487.56;5027546;28;20065;-85
2023/04/07 01:47:36;;;;;;;32.97;10.48;;;;;;;-144.87;100.00;61487.56;5008011;28;20041;-83
2023/04/07 01:50:21;;;;;;;34.35;10.88;;;;;;;-144.87;100.00;61487.56;5027467;28;20084;-83
2023/04/07 01:52:48;;;;;;;32.45;10.38;;;;;;;-144.87;100.00;61487.56;5027692;28;20071;-85
2023/04/07 01:55:16;;;;;;;33.30;11.23;;;;;;;-144.87;100.00;61487.56;5009298;28;20044;-85
2023/04/07 01:57:54;;;;;;;36.70;10.45;;;;;;;-144.87;100.00;61487.56;4998080;28;20046;-85
2023/04/07 02:00:21;;;;;;;30.25;10.52;;;;;;;-144.87;100.00;61487.56;4994421;28;20037;-85
2023/04/07 02:02:54;;;;;;;28.95;9.98;;;;;;;-144.87;100.00;61487.56;5005707;28;20346;-84
2023/04/07 02:05:21;;;;;;;39.95;10.77;;;;;;;-144.87;100.00;61487.56;5018720;28;20398;-83
2023/04/07 02:08:00;;;;;;;37.83;11.77;;;;;;;-144.87;100.00;61487.56;5015430;28;20034;-83
2023/04/07 02:10:29;;;;;;;37.05;10.85;;;;;;;-144.87;100.00;61487.56;5034015;28;20025;-84
2023/04/07 02:13:00;;;;;;;31.33;10.63;;;;;;;-144.87;100.00;61487.56;5009919;28;20116;-83
2023/04/07 02:15:45;;;;;;;36.22;10.77;;;;;;;-144.87;100.00;61487.56;5010837;28;20430;-83
2023/04/07 02:18:13;;;;;;;35.90;11.77;;;;;;;-144.87;100.00;61487.56;5013352;28;20037;-86
2023/04/07 02:20:42;;;;;;;33.63;9.90;;;;;;;-144.87;100.00;61487.56;5009175;28;20140;-86
2023/04/07 02:23:11;;;;;;;32.00;10.52;;;;;;;-144.87;100.00;61487.56;5021598;28;20136;-82
2023/04/07 02:25:57;;;;;;;42.92;12.00;;;;;;;-144.87;100.00;61487.56;5003815;28;20057;-84
2023/04/07 02:28:24;;;;;;;32.45;9.02;;;;;;;-144.87;100.00;61487.56;5008393;28;20084;-85
2023/04/07 02:30:50;;;;;;;25.90;9.30;;;;;;;-144.87;100.00;61487.56;5007393;28;20030;-83
2023/04/07 02:33:17;;;;;;;31.92;9.10;;;;;;;-144.87;100.00;61487.56;5004862;28;20131;-84
2023/04/07 02:35:43;;;;;;;28.60;9.00;;;;;;;-144.87;100.00;61487.56;5006207;28;20034;-83
2023/04/07 02:38:09;;;;;;;38.67;8.63;;;;;;;-144.87;100.00;61487.56;5006874;28;20029;-85
2023/04/07 02:40:36;;;;;;;31.35;9.63;;;;;;;-144.87;100.00;61487.56;5005332;28;20042;-84
2023/04/07 02:43:03;;;;;;;32.85;8.63;;;;;;;-144.87;100.00;61487.56;5005662;28;20034;-84
2023/04/07 02:46:08;;;;;;;34.20;9.98;;;;;;;-144.87;100.00;61487.56;5002251;28;20509;-84
2023/04/07 02:48:35;;;;;;;37.50;9.68;;;;;;;-144.87;100.00;61487.56;5006190;28;20117;-84
2023/04/07 02:51:02;;;;;;;32.13;9.38;;;;;;;-144.87;100.00;61487.56;4983467;28;20045;-85
2023/04/07 02:53:29;;;;;;;40.55;9.60;;;;;;;-144.87;100.00;61487.56;5005018;28;20038;-83
2023/04/07 02:55:56;;;;;;;42.97;9.73;;;;;;;-144.87;100.00;61487.56;5007193;28;20030;-84
2023/04/07 02:58:22;;;;;;;37.53;10.60;;;;;;;-144.87;100.00;61487.56;4986697;28;20030;-83
2023/04/07 03:00:49;;;;;;;34.17;9.35;;;;;;;-144.87;100.00;61487.56;5003202;28;20392;-83
2023/04/07 03:03:19;;;;;;;40.90;9.75;;;;;;;-144.87;100.00;61487.56;5004623;28;20026;-83
2023/04/07 03:06:02;;;;;;;34.90;10.13;;;;;;;-144.87;100.00;61487.56;5005066;28;20049;-83
2023/04/07 03:08:31;;;;;;;44.35;11.15;;;;;;;-144.87;100.00;61487.56;5011695;28;20069;-83
2023/04/07 03:10:58;;;;;;;37.28;12.95;;;;;;;-144.87;100.00;61487.56;5006507;28;20038;-82
2023/04/07 03:13:47;;;;;;;44.23;10.27;;;;;;;-144.87;100.00;61487.56;5002739;28;20029;-83
2023/04/07 03:16:14;;;;;;;45.78;10.05;;;;;;;-144.87;100.00;61487.56;5021112;28;20120;-81
2023/04/07 03:18:54;;;;;;;35.30;10.30;;;;;;;-144.87;100.00;61487.56;4987174;28;20443;-83
2023/04/07 03:21:22;;;;;;;30.83;10.23;;;;;;;-144.87;100.00;61487.56;5007709;28;20541;-84
2023/04/07 03:23:48;;;;;;;35.65;11.70;;;;;;;-144.87;100.00;61487.56;5009259;28;20036;-83
2023/04/07 03:26:16;;;;;;;35.42;10.95;;;;;;;-144.87;100.00;61487.56;5006447;28;20116;-84
2023/04/07 03:28:43;;;;;;;38.22;10.43;;;;;;;-144.87;100.00;61487.56;5006103;28;20030;-85
2023/04/07 03:31:09;;;;;;;35.45;11.02;;;;;;;-144.87;100.00;61487.56;4989928;28;20045;-84
2023/04/07 03:33:35;;;;;;;34.55;10.38;;;;;;;-144.87;100.00;61487.56;5013430;28;20036;-86
2023/04/07 03:36:02;;;;;;;41.38;12.15;;;;;;;-144.87;100.00;61487.56;5028947;28;20072;-84
2023/04/07 03:38:29;;;;;;;39.05;13.00;;;;;;;-144.87;100.00;61487.56;5026933;28;20115;-85
2023/04/07 03:41:00;;;;;;;;;;;;;;;-144.87;100.00;61487.56;4995071;28;20479;-85
2023/04/07 03:43:26;;;;;;;30.88;13.23;;;;;;;-144.87;100.00;61487.56;5006993;28;19967;-83
2023/04/07 03:45:53;;;;;;;40.63;14.38;;;;;;;-144.87;100.00;61487.56;5011936;28;20122;-85
2023/04/07 03:48:41;;;;;;;45.53;16.38;;;;;;;-144.87;100.00;61487.56;5004188;28;20503;-85
2023/04/07 03:51:10;;;;;;;36.17;15.07;;;;;;;-144.87;100.00;61487.56;5022897;28;20056;-86
2023/04/07 03:53:37;;;;;;;35.70;15.77;;;;;;;-144.87;100.00;61487.56;5011012;28;20044;-85
2023/04/07 03:56:37;;;;;;;45.60;16.52;;;;;;;-144.87;100.00;61487.56;5008946;28;20084;-85
2023/04/07 03:59:05;;;;;;;47.50;17.80;;;;;;;-144.87;100.00;61487.56;5005360;28;20040;-84
2023/04/07 04:01:36;;;;;;;62.10;18.25;;;;;;;-144.87;100.00;61487.56;5009421;28;20109;-85
2023/04/07 04:04:11;;;;;;;42.53;17.73;;;;;;;-144.87;100.00;61487.56;5007755;28;20500;-86
2023/04/07 04:06:38;;;;;;;35.58;17.55;;;;;;;-144.87;100.00;61487.56;5011911;28;20053;-84
2023/04/07 04:09:36;;;;;;;36.35;16.75;;;;;;;-144.87;100.00;61487.56;4997852;28;20452;-86
2023/04/07 04:12:04;;;;;;;32.03;15.52;;;;;;;-144.87;100.00;61487.56;4996462;28;20042;-84
2023/04/07 04:14:33;;;;;;;36.30;15.93;;;;;;;-144.87;100.00;61487.56;4998871;28;20034;-86
2023/04/07 04:17:02;;;;;;;36.78;16.58;;;;;;;-144.87;100.00;61487.56;5008743;28;20368;-86
2023/04/07 04:19:54;;;;;;;31.27;14.80;;;;;;;-144.87;100.00;61487.56;5006842;28;20034;-86
2023/04/07 04:22:26;;;;;;;30.77;14.55;;;;;;;-144.87;100.00;61487.56;5020557;28;20029;-86
2023/04/07 04:24:56;;;;;;;29.85;15.18;;;;;;;-144.87;100.00;61487.56;4978123;28;20053;-86
2023/04/07 04:27:24;;;;;;;36.15;15.73;;;;;;;-144.87;100.00;61487.56;5005821;28;20182;-86
2023/04/07 04:29:57;;;;;;;33.15;13.75;;;;;;;-144.87;100.00;61487.56;4993438;28;20410;-85
2023/04/07 04:32:33;;;;;;;33.80;13.07;;;;;;;-144.87;100.00;61487.56;4988348;28;20125;-86
2023/04/07 04:35:00;;;;;;;21.73;12.00;;;;;;;-144.87;100.00;61487.56;4993755;28;20072;-87
2023/04/07 04:37:31;;;;;;;24.63;13.05;;;;;;;-144.87;100.00;61487.56;5007395;28;20029;-87
2023/04/07 04:39:58;;;;;;;28.53;11.93;;;;;;;-144.87;100.00;61487.56;5023120;28;20041;-86
2023/04/07 04:42:26;;;;;;;30.63;13.48;;;;;;;-144.87;100.00;61487.56;5005090;28;20457;-87
2023/04/07 04:44:55;;;;;;;24.60;12.15;;;;;;;-144.87;100.00;61487.56;4988172;28;20029;-87
2023/04/07 04:47:21;;;;;;;30.08;16.27;;;;;;;-144.87;100.00;61487.56;4991475;28;20037;-87
2023/04/07 04:49:48;;;;;;;37.63;16.85;;;;;;;-144.87;100.00;61487.56;4978279;28;20060;-87
2023/04/07 04:52:15;;;;;;;37.47;19.50;;;;;;;-144.87;100.00;61487.56;5009038;28;20136;-86
2023/04/07 04:54:45;;;;;;;37.70;20.40;;;;;;;-144.87;100.00;61487.56;5006489;28;20038;-87
2023/04/07 04:57:31;;;;;;;46.67;21.55;;;;;;;-144.87;100.00;61487.56;4995629;28;20069;-86
2023/04/07 04:59:59;;;;;;;45.85;20.80;;;;;;;-144.87;100.00;61487.56;5028004;28;20069;-85
2023/04/07 05:02:27;;;;;;;45.95;20.42;;;;;;;-144.87;100.00;61487.56;5005601;28;20069;-87
2023/04/07 05:04:53;;;;;;;31.90;15.35;;;;;;;-144.87;100.00;61487.56;5006485;28;20065;-87
2023/04/07 05:07:26;;;;;;;24.60;13.63;;;;;;;-144.87;100.00;61487.56;5010547;28;20034;-86
2023/04/07 05:09:52;;;;;;;23.70;10.70;;;;;;;-144.87;100.00;61487.56;5010567;28;20415;-87
2023/04/07 05:12:21;;;;;;;21.63;9.32;;;;;;;-144.87;100.00;61487.56;4994418;28;20034;-85
2023/04/07 05:14:54;;;;;;;19.42;8.55;;;;;;;-144.87;100.00;61487.56;4993658;28;20076;-86
2023/04/07 05:17:20;;;;;;;18.58;8.10;;;;;;;-144.87;100.00;61487.56;4999606;28;20663;-87
2023/04/07 05:19:47;;;;;;;21.00;8.95;;;;;;;-144.87;100.00;61487.56;5010166;28;20515;-87
2023/04/07 05:22:23;;;;;;;23.05;10.23;;;;;;;-144.87;100.00;61487.56;5007870;28;20030;-86
2023/04/07 05:24:51;;;;;;;36.63;15.88;;;;;;;-144.87;100.00;61487.56;5011485;28;20155;-86
2023/04/07 05:27:17;;;;;;;31.55;16.65;;;;;;;-144.87;100.00;61487.56;5026882;28;20037;-85
2023/04/07 05:29:49;;;;;;;35.05;17.33;;;;;;;-144.87;100.00;61487.56;5007113;28;20049;-87
2023/04/07 05:32:26;;;;;;;45.08;17.77;;;;;;;-144.87;100.00;61487.56;5005453;28;20034;-87
2023/04/07 05:34:53;;;;;;;35.10;16.95;;;;;;;-144.87;100.00;61487.56;5025382;28;20029;-88
2023/04/07 05:37:20;;;;;;;39.70;15.90;;;;;;;-144.87;100.00;61487.56;5002978;28;20034;-86
2023/04/07 05:39:48;;;;;;;33.58;15.63;;;;;;;-144.87;100.00;61487.56;5009472;28;20406;-87
2023/04/07 05:42:14;;;;;;;34.30;14.98;;;;;;;-144.87;100.00;61487.56;5014456;28;20083;-87
2023/04/07 05:44:44;;;;;;;32.80;14.65;;;;;;;-144.87;100.00;61487.56;5010517;28;20044;-87
2023/04/07 05:47:11;;;;;;;38.75;15.32;;;;;;;-144.87;100.00;61487.56;5002507;28;20124;-87
2023/04/07 05:49:44;;;;;;;30.38;13.30;;;;;;;-144.87;100.00;61487.56;4997319;28;20033;-87
2023/04/07 05:52:12;;;;;;;31.42;12.90;;;;;;;-144.87;100.00;61487.56;5002918;28;20026;-86
2023/04/07 05:54:42;;;;;;;29.13;12.35;;;;;;;-144.87;100.00;61487.56;5016846;28;20108;-86
2023/04/07 05:57:31;;;;;;;31.50;12.60;;;;;;;-144.87;100.00;61487.56;5013079;28;20090;-85
2023/04/07 06:00:00;;;;;;;27.33;10.50;;;;;;;-144.87;100.00;61487.56;5007543;28;20498;-86
2023/04/07 06:02:26;;;;;;;33.72;11.40;;;;;;;-144.87;100.00;61487.56;5013870;28;20090;-85
2023/04/07 06:04:53;;;;;;;31.17;16.00;;;;;;;-144.87;100.00;61487.56;5009143;28;20578;-84
2023/04/07 06:07:20;;;;;;;25.42;10.40;;;;;;;-144.87;100.00;61487.56;5011247;28;20433;-85
2023/04/07 06:09:46;;;;;;;32.00;10.23;;;;;;;-144.87;100.00;61487.56;5029316;28;20037;-86
2023/04/07 06:12:15;;;;;;;31.35;10.32;;;;;;;-144.87;100.00;61487.56;5013659;28;20538;-85
2023/04/07 06:14:51;;;;;;;28.85;9.80;;;;;;;-144.87;100.00;61487.56;5013679;28;20522;-85
2023/04/07 06:17:18;;;;;;;20.45;8.75;;;;;;;-144.87;100.00;61487.56;5003361;28;20026;-85
2023/04/07 06:19:47;;;;;;;18.52;7.95;;;;;;;-144.87;100.00;61487.56;4994811;28;20038;-84
2023/04/07 06:22:33;;;;;;;23.73;8.38;;;;;;;-144.87;100.00;61487.56;4993871;28;20038;-83
2023/04/07 06:24:59;;;;;;;22.92;7.82;;;;;;;-144.87;100.00;61487.56;5020538;28;20196;-86
2023/04/07 06:27:32;;;;;;;24.45;8.27;;;;;;;-144.87;100.00;61487.56;5031230;28;20029;-85
2023/04/07 06:29:58;;;;;;;26.58;9.07;;;;;;;-144.87;100.00;61487.56;4997801;28;20398;-84
2023/04/07 06:32:25;;;;;;;26.63;7.88;;;;;;;-144.87;100.00;61487.56;5013224;28;20034;-84
2023/04/07 06:35:29;;;;;;;28.40;8.85;;;;;;;-144.87;100.00;61487.56;5009912;28;20536;-84
2023/04/07 06:37:56;;;;;;;19.80;8.05;;;;;;;-144.87;100.00;61487.56;5030541;28;20037;-85
2023/04/07 06:40:22;;;;;;;24.83;7.75;;;;;;;-144.87;100.00;61487.56;5017727;28;20026;-85
2023/04/07 06:43:07;;;;;;;20.02;8.80;;;;;;;-144.87;100.00;61487.56;5028786;28;20140;-85
2023/04/07 06:45:43;;;;;;;27.38;8.82;;;;;;;-144.87;100.00;61487.56;5006379;28;20035;-85
2023/04/07 06:48:10;;;;;;;21.00;9.27;;;;;;;-144.87;100.00;61487.56;5028666;28;20038;-84
2023/04/07 06:50:37;;;;;;;30.80;10.65;;;;;;;-144.87;100.00;61487.56;5028823;28;20038;-86
2023/04/07 06:53:04;;;;;;;21.75;8.10;;;;;;;-144.87;100.00;61487.56;5031152;28;20128;-86
2023/04/07 06:55:32;;;;;;;31.02;9.50;;;;;;;-144.87;100.00;61487.56;5010986;28;20038;-86
2023/04/07 06:57:58;;;;;;;23.85;9.35;;;;;;;-144.87;100.00;61487.56;5014392;28;20071;-86
2023/04/07 07:00:43;;;;;;;25.55;8.95;;;;;;;-144.87;100.00;61487.56;5028877;28;20041;-86
2023/04/07 07:03:10;;;;;;;26.48;9.20;;;;;;;-144.87;100.00;61487.56;5033475;28;20057;-85
2023/04/07 07:05:36;;;;;;;25.63;8.35;;;;;;;-144.87;100.00;61487.56;5029406;28;20033;-85
2023/04/07 07:08:02;;;;;;;28.45;8.43;;;;;;;-144.87;100.00;61487.56;5018399;28;20060;-85
2023/04/07 07:10:29;;;;;;;26.50;9.52;;;;;;;-144.87;100.00;61487.56;5031690;28;20148;-85
2023/04/07 07:12:55;;;;;;;26.75;10.00;;;;;;;-144.87;100.00;61487.56;5022847;28;20076;-85
2023/04/07 07:15:21;;;;;;;28.58;9.45;;;;;;;-144.87;100.00;61487.56;5031930;28;20033;-85
2023/04/07 07:17:47;;;;;;;28.55;10.23;;;;;;;-144.87;100.00;61487.56;5023978;28;20053;-85
2023/04/07 07:20:14;;;;;;;22.25;8.45;;;;;;;-144.87;100.00;61487.56;5020261;28;20462;-85
2023/04/07 07:22:40;;;;;;;29.70;9.35;;;;;;;-144.87;100.00;61487.56;5005154;28;20052;-85
2023/04/07 07:25:07;;;;;;;32.63;9.00;;;;;;;-144.87;100.00;61487.56;5032444;28;20100;-85
2023/04/07 07:27:33;;;;;;;26.60;8.85;;;;;;;-144.87;100.00;61487.56;5014620;28;20120;-86
2023/04/07 07:30:00;;;;;;;25.23;9.43;;;;;;;-144.87;100.00;61487.56;5008866;28;20052;-86
2023/04/07 07:32:27;;;;;;;30.27;9.15;;;;;;;-144.87;100.00;61487.56;5015927;28;20060;-85
2023/04/07 07:34:53;;;;;;;29.30;9.45;;;;;;;-144.87;100.00;61487.56;5031323;28;20033;-84
2023/04/07 07:37:20;;;;;;;29.98;8.90;;;;;;;-144.87;100.00;61487.56;5027787;28;20449;-84
2023/04/07 07:40:05;;;;;;;31.10;8.93;;;;;;;-144.87;100.00;61487.56;5032761;28;20065;-86
2023/04/07 07:42:31;;;;;;;26.00;8.07;;;;;;;-144.87;100.00;61487.56;5014811;28;20030;-86
2023/04/07 07:44:58;;;;;;;27.85;8.25;;;;;;;-144.87;100.00;61487.56;5031933;28;20571;-85
2023/04/07 07:47:25;;;;;;;32.78;8.48;;;;;;;-144.87;100.00;61487.56;5031076;28;20052;-86
2023/04/07 07:49:52;;;;;;;36.17;6.97;;;;;;;-144.87;100.00;61487.56;5032228;28;20030;-86
2023/04/07 07:52:19;;;;;;;26.85;7.70;;;;;;;-144.87;100.00;61487.56;5032233;28;20044;-86
2023/04/07 07:54:48;;;;;;;17.95;6.00;;;;;;;-144.87;100.00;61487.56;5032690;28;20038;-86
2023/04/07 07:57:17;;;;;;;16.33;5.75;;;;;;;-144.87;100.00;61487.56;5029715;28;20045;-82
2023/04/07 07:59:45;;;;;;;21.90;5.63;;;;;;;-144.87;100.00;61487.56;5032718;28;20475;-85
2023/04/07 08:02:12;;;;;;;17.55;5.93;;;;;;;-144.87;100.00;61487.56;5024778;28;20045;-85
2023/04/07 08:04:40;;;;;;;15.52;5.63;;;;;;;-144.87;100.00;61487.56;5011583;28;20033;-83
2023/04/07 08:07:07;;;;;;;15.23;5.68;;;;;;;-144.87;100.00;61487.56;5032551;28;20049;-85
2023/04/07 08:09:33;;;;;;;18.77;6.30;;;;;;;-144.87;100.00;61487.56;5034057;28;20098;-84
2023/04/07 08:11:59;;;;;;;15.02;4.68;;;;;;;-144.87;100.00;61487.56;5028143;28;20506;-86
2023/04/07 08:14:26;;;;;;;23.02;7.38;;;;;;;-144.87;100.00;61487.56;5030627;28;20088;-84
2023/04/07 08:16:53;;;;;;;17.23;5.18;;;;;;;-144.87;100.00;61487.56;5034014;28;20041;-85
2023/04/07 08:19:19;;;;;;;15.15;4.25;;;;;;;-144.87;100.00;61487.56;5024235;28;20491;-85
2023/04/07 08:21:46;;;;;;;18.70;5.03;;;;;;;-144.87;100.00;61487.56;5016136;28;20402;-84
2023/04/07 08:24:50;;;;;;;17.05;5.10;;;;;;;-144.87;100.00;61487.56;5016520;28;20109;-85
2023/04/07 08:27:27;;;;;;;16.67;3.95;;;;;;;-144.87;100.00;61487.56;5032849;28;20490;-86
2023/04/07 08:30:01;;;;;;;13.23;4.28;;;;;;;-144.87;100.00;61487.56;5014877;28;20034;-86
2023/04/07 08:32:39;;;;;;;14.90;3.90;;;;;;;-144.87;100.00;61487.56;5042318;28;20068;-87
2023/04/07 08:35:06;;;;;;;20.00;5.03;;;;;;;-144.87;100.00;61487.56;5006092;28;20083;-85
2023/04/07 08:38:10;;;;;;;17.05;4.68;;;;;;;-144.87;100.00;61487.56;5031672;28;20056;-87
2023/04/07 08:41:02;;;;;;;10.95;3.83;;;;;;;-144.87;100.00;61487.56;5031853;28;20415;-85
2023/04/07 08:46:56;;;;;;;13.98;3.85;;;;;;;-144.87;100.00;61487.56;5036548;28;20041;-84
2023/04/07 08:49:24;;;;;;;15.98;4.72;;;;;;;-144.87;100.00;61487.56;5000574;28;20046;-83
2023/04/07 08:52:11;;;;;;;16.38;4.43;;;;;;;-144.87;100.00;61487.56;5015062;28;20063;-86
2023/04/07 08:54:39;;;;;;;11.00;3.33;;;;;;;-144.87;100.00;61487.56;5023896;28;20046;-86
2023/04/07 08:57:07;;;;;;;22.13;4.53;;;;;;;-144.87;100.00;61487.56;5010111;28;20021;-87
2023/04/07 08:59:34;;;;;;;16.40;3.35;;;;;;;-144.87;100.00;61487.56;5021054;28;20033;-85
2023/04/07 09:02:01;;;;;;;19.75;3.50;;;;;;;-144.87;100.00;61487.56;5015910;28;20111;-86
2023/04/07 09:04:27;;;;;;;11.52;3.15;;;;;;;-144.87;100.00;61487.56;5014082;28;20041;-87
2023/04/07 09:07:32;;;;;;;14.45;3.47;;;;;;;-144.87;100.00;61487.56;5016434;28;20090;-86
2023/04/07 09:09:58;;;;;;;6.93;2.55;;;;;;;-144.87;100.00;61487.56;5012615;28;20129;-85
2023/04/07 09:12:28;;;;;;;10.18;2.90;;;;;;;-144.87;100.00;61487.56;5029786;28;20128;-86
2023/04/07 09:14:55;;;;;;;13.70;3.20;;;;;;;-144.87;100.00;61487.56;5032056;28;20068;-86
2023/04/07 09:17:21;;;;;;;13.45;3.17;;;;;;;-144.87;100.00;61487.56;5032448;28;20518;-87
2023/04/07 09:19:48;;;;;;;12.60;3.42;;;;;;;-144.87;100.00;61487.56;5033968;28;20033;-86
2023/04/07 09:22:14;;;;;;;9.48;4.22;;;;;;;-144.87;100.00;61487.56;5010598;28;20094;-88
2023/04/07 09:24:42;;;;;;;11.82;4.50;;;;;;;-144.87;100.00;61487.56;5030725;28;20037;-85
2023/04/07 09:27:14;;;;;;;14.10;5.13;;;;;;;-144.87;100.00;61487.56;5009852;28;20050;-86
2023/04/07 09:29:42;;;;;;;20.35;5.38;;;;;;;-144.87;100.00;61487.56;5005231;28;20128;-85
2023/04/07 09:32:36;;;;;;;20.85;7.35;;;;;;;-144.87;100.00;61487.56;5012567;28;20026;-86
2023/04/07 09:35:02;;;;;;;20.80;7.07;;;;;;;-144.87;100.00;61487.56;5011674;28;20113;-88
2023/04/07 09:37:28;;;;;;;21.20;5.70;;;;;;;-144.87;100.00;61487.56;5017545;28;20057;-86
2023/04/07 09:39:54;;;;;;;17.52;5.00;;;;;;;-144.87;100.00;61487.56;5011009;28;20050;-85
2023/04/07 09:42:58;;;;;;;23.27;5.32;;;;;;;-144.87;100.00;61487.56;5010551;28;20124;-86
2023/04/07 09:45:26;;;;;;;17.90;4.97;;;;;;;-144.87;100.00;61487.56;5002546;28;20041;-87
2023/04/07 09:47:53;;;;;;;17.70;5.50;;;;;;;-144.87;100.00;61487.56;5007301;28;20057;-86
2023/04/07 09:50:34;;;;;;;24.45;6.00;;;;;;;-144.87;100.00;61487.56;5011635;28;20057;-87
2023/04/07 09:53:01;;;;;;;20.20;6.65;;;;;;;-144.87;100.00;61487.56;5013792;28;20045;-87
2023/04/07 09:55:30;;;;;;;22.67;7.40;;;;;;;-144.87;100.00;61487.56;5011711;28;20092;-86
2023/04/07 09:57:57;;;;;;;22.17;7.72;;;;;;;-144.87;100.00;61487.56;5012625;28;20038;-87
2023/04/07 10:00:24;;;;;;;17.75;7.18;;;;;;;-144.87;100.00;61487.56;5012762;28;20034;-84
2023/04/07 10:02:51;;;;;;;32.80;8.05;;;;;;;-144.87;100.00;61487.56;5029416;28;20037;-86
2023/04/07 10:05:21;;;;;;;20.58;8.80;;;;;;;-144.87;100.00;61487.56;5033389;28;20052;-87
2023/04/07 10:07:48;;;;;;;24.13;9.00;;;;;;;-144.87;100.00;61487.56;5030723;28;20099;-86
2023/04/07 10:10:14;;;;;;;20.88;9.27;;;;;;;-144.87;100.00;61487.56;5025101;28;20092;-87
2023/04/07 10:12:59;;;;;;;22.80;7.72;;;;;;;-144.87;100.00;61487.56;5027540;28;20029;-87
2023/04/07 10:15:26;;;;;;;17.15;8.63;;;;;;;-144.87;100.00;61487.56;5032645;28;20055;-83
2023/04/07 10:18:13;;;;;;;18.52;8.75;;;;;;;-144.87;100.00;61487.56;5030789;28;20479;-86
2023/04/07 10:20:41;;;;;;;21.55;9.13;;;;;;;-144.87;100.00;61487.56;4997959;28;20085;-88
2023/04/07 10:23:21;;;;;;;30.40;10.93;;;;;;;-144.87;100.00;61487.56;5011403;28;20116;-87
2023/04/07 10:25:48;;;;;;;20.67;8.52;;;;;;;-144.87;100.00;61487.56;5010068;28;20446;-87
2023/04/07 10:28:15;;;;;;;25.77;8.68;;;;;;;-144.87;100.00;61487.56;5010423;28;20519;-85
2023/04/07 10:31:03;;;;;;;23.10;8.27;;;;;;;-144.87;100.00;61487.56;5012491;28;20080;-86
2023/04/07 10:33:47;;;;;;;23.33;8.23;;;;;;;-144.87;100.00;61487.56;5011964;28;20046;-87
2023/04/07 10:36:13;;;;;;;14.68;5.90;;;;;;;-144.87;100.00;61487.56;5012693;28;20048;-86
2023/04/07 10:39:07;;;;;;;20.10;5.07;;;;;;;-144.87;100.00;61487.56;5013312;28;20050;-85
2023/04/07 10:41:38;;;;;;;26.63;6.13;;;;;;;-144.87;100.00;61487.56;5010483;28;20034;-88
2023/04/07 10:44:42;;;;;;;23.63;5.47;;;;;;;-144.87;100.00;61487.56;5011259;28;20058;-87
2023/04/07 10:47:11;;;;;;;19.80;5.50;;;;;;;-144.87;100.00;61487.56;5012780;28;20504;-88
2023/04/07 10:50:22;;;;;;;23.08;6.47;;;;;;;-144.87;100.00;61487.56;4994939;28;20060;-87
2023/04/07 10:53:11;;;;;;;16.23;6.40;;;;;;;-144.87;100.00;61487.56;5008543;28;20041;-86
2023/04/07 10:55:40;;;;;;;18.45;7.85;;;;;;;-144.87;100.00;61487.56;5012004;28;20144;-85
2023/04/07 10:58:20;;;;;;;14.27;7.78;;;;;;;-144.87;100.00;61487.56;5010750;28;20022;-87
2023/04/07 11:01:06;;;;;;;19.98;8.80;;;;;;;-144.87;100.00;61487.56;5011891;28;20072;-86
2023/04/07 11:03:38;;;;;;;24.10;9.10;;;;;;;-144.87;100.00;61487.56;5005369;28;20523;-86
2023/04/07 11:06:14;;;;;;;24.55;8.77;;;;;;;-144.87;100.00;61487.56;5010963;28;20034;-87
2023/04/07 11:08:44;;;;;;;18.80;7.95;;;;;;;-144.87;100.00;61487.56;5012591;28;20407;-86
2023/04/07 11:11:12;;;;;;;14.90;5.90;;;;;;;-144.87;100.00;61487.56;5012495;28;20022;-85
2023/04/07 11:13:48;;;;;;;18.70;6.28;;;;;;;-144.87;100.00;61487.56;5011097;28;20032;-87
2023/04/07 11:16:17;;;;;;;19.27;5.60;;;;;;;-144.87;100.00;61487.56;4994985;28;20033;-86
2023/04/07 11:18:45;;;;;;;11.95;5.32;;;;;;;-144.87;100.00;61487.56;5010863;28;20026;-85
2023/04/07 11:21:52;;;;;;;15.45;4.88;;;;;;;-144.87;100.00;61487.56;5010956;28;20580;-85
2023/04/07 11:24:36;;;;;;;19.15;5.43;;;;;;;-144.87;100.00;61487.56;5012582;28;20041;-84